sensor_id;sensor_type;location;lat;lon;timestamp;noise_LAeq;noise_LA_min;noise_LA_max;noise_LA01;noise_LA95
50333;Laerm;36239;48.132;-1.210;2022-12-07T00:02:11;39.73;34.69;45.72;;
50333;Laerm;36239;48.132;-1.210;2022-12-07T00:04:37;38.99;35.04;42.41;;
50333;Laerm;36239;48.132;-1.210;2022-12-07T00:07:03;39.18;34.31;43.54;;
50333;Laerm;36239;48.132;-1.210;2022-12-07T00:09:30;39.72;35.36;44.73;;
50333;Laerm;36239;48.132;-1.210;2022-12-07T00:11:56;39.51;34.69;42.98;;
50333;Laerm;36239;48.132;-1.210;2022-12-07T00:14:22;39.49;35.66;43.54;;
50333;Laerm;36239;48.132;-1.210;2022-12-07T00:16:48;39.57;35.66;42.35;;
50333;Laerm;36239;48.132;-1.210;2022-12-07T00:19:17;39.45;35.36;48.12;;
50333;Laerm;36239;48.132;-1.210;2022-12-07T00:21:43;39.35;33.90;42.82;;
50333;Laerm;36239;48.132;-1.210;2022-12-07T00:24:10;38.98;34.69;42.19;;
50333;Laerm;36239;48.132;-1.210;2022-12-07T00:26:37;38.74;34.69;46.59;;
50333;Laerm;36239;48.132;-1.210;2022-12-07T00:29:04;38.68;33.90;42.47;;
50333;Laerm;36239;48.132;-1.210;2022-12-07T00:31:32;38.83;35.04;41.75;;
50333;Laerm;36239;48.132;-1.210;2022-12-07T00:33:59;38.43;33.90;43.37;;
50333;Laerm;36239;48.132;-1.210;2022-12-07T00:36:25;38.60;34.31;42.82;;
50333;Laerm;36239;48.132;-1.210;2022-12-07T00:38:51;38.80;35.04;43.34;;
50333;Laerm;36239;48.132;-1.210;2022-12-07T00:41:18;38.76;34.31;42.16;;
50333;Laerm;36239;48.132;-1.210;2022-12-07T00:43:45;39.01;34.31;44.80;;
50333;Laerm;36239;48.132;-1.210;2022-12-07T00:46:11;38.61;34.69;42.41;;
50333;Laerm;36239;48.132;-1.210;2022-12-07T00:48:38;38.58;34.69;42.76;;
50333;Laerm;36239;48.132;-1.210;2022-12-07T00:51:04;38.71;34.31;41.53;;
50333;Laerm;36239;48.132;-1.210;2022-12-07T00:53:30;44.70;34.31;79.71;;
50333;Laerm;36239;48.132;-1.210;2022-12-07T00:55:56;38.64;34.31;41.94;;
50333;Laerm;36239;48.132;-1.210;2022-12-07T00:58:23;38.50;35.04;45.30;;
50333;Laerm;36239;48.132;-1.210;2022-12-07T01:00:49;38.72;33.90;42.47;;
50333;Laerm;36239;48.132;-1.210;2022-12-07T01:03:15;38.58;34.31;41.53;;
50333;Laerm;36239;48.132;-1.210;2022-12-07T01:05:51;39.36;34.31;43.49;;
50333;Laerm;36239;48.132;-1.210;2022-12-07T01:08:17;38.62;34.31;42.59;;
50333;Laerm;36239;48.132;-1.210;2022-12-07T01:10:44;38.76;34.69;44.35;;
50333;Laerm;36239;48.132;-1.210;2022-12-07T01:13:10;38.81;35.04;42.65;;
50333;Laerm;36239;48.132;-1.210;2022-12-07T01:15:42;38.55;34.69;44.73;;
50333;Laerm;36239;48.132;-1.210;2022-12-07T01:18:09;38.60;33.44;43.04;;
50333;Laerm;36239;48.132;-1.210;2022-12-07T01:20:35;39.09;34.69;45.62;;
50333;Laerm;36239;48.132;-1.210;2022-12-07T01:23:01;38.65;34.69;41.89;;
50333;Laerm;36239;48.132;-1.210;2022-12-07T01:25:27;38.60;34.31;41.46;;
50333;Laerm;36239;48.132;-1.210;2022-12-07T01:27:53;39.00;34.69;45.17;;
50333;Laerm;36239;48.132;-1.210;2022-12-07T01:30:19;38.16;33.44;43.04;;
50333;Laerm;36239;48.132;-1.210;2022-12-07T01:32:45;38.23;33.90;41.06;;
50333;Laerm;36239;48.132;-1.210;2022-12-07T01:35:11;38.45;33.44;41.82;;
50333;Laerm;36239;48.132;-1.210;2022-12-07T01:37:39;38.93;35.04;42.03;;
50333;Laerm;36239;48.132;-1.210;2022-12-07T01:40:06;40.19;34.69;45.11;;
50333;Laerm;36239;48.132;-1.210;2022-12-07T01:42:32;38.56;34.31;42.53;;
50333;Laerm;36239;48.132;-1.210;2022-12-07T01:47:43;38.59;34.31;42.13;;
50333;Laerm;36239;48.132;-1.210;2022-12-07T01:50:12;38.75;34.31;45.23;;
50333;Laerm;36239;48.132;-1.210;2022-12-07T01:52:38;38.39;34.31;41.75;;
50333;Laerm;36239;48.132;-1.210;2022-12-07T01:55:06;38.73;34.69;42.82;;
50333;Laerm;36239;48.132;-1.210;2022-12-07T01:57:33;39.86;35.36;51.42;;
50333;Laerm;36239;48.132;-1.210;2022-12-07T02:00:00;39.45;35.04;43.81;;
50333;Laerm;36239;48.132;-1.210;2022-12-07T02:02:34;39.37;35.94;43.86;;
50333;Laerm;36239;48.132;-1.210;2022-12-07T02:05:01;39.02;35.04;42.98;;
50333;Laerm;36239;48.132;-1.210;2022-12-07T02:07:27;41.38;35.66;52.82;;
50333;Laerm;36239;48.132;-1.210;2022-12-07T02:09:54;40.41;35.66;50.87;;
50333;Laerm;36239;48.132;-1.210;2022-12-07T02:12:20;39.46;35.36;43.29;;
50333;Laerm;36239;48.132;-1.210;2022-12-07T02:14:46;48.30;35.36;83.83;;
50333;Laerm;36239;48.132;-1.210;2022-12-07T02:17:28;40.16;35.04;48.23;;
50333;Laerm;36239;48.132;-1.210;2022-12-07T02:27:46;40.01;35.94;42.88;;
50333;Laerm;36239;48.132;-1.210;2022-12-07T02:30:14;40.34;35.94;45.57;;
50333;Laerm;36239;48.132;-1.210;2022-12-07T02:35:41;40.04;35.86;43.14;;
50333;Laerm;36239;48.132;-1.210;2022-12-07T02:38:16;40.65;36.91;44.65;;
50333;Laerm;36239;48.132;-1.210;2022-12-07T02:45:41;39.89;34.69;42.88;;
50333;Laerm;36239;48.132;-1.210;2022-12-07T02:48:08;39.10;33.90;43.28;;
50333;Laerm;36239;48.132;-1.210;2022-12-07T02:50:35;40.47;36.69;43.14;;
50333;Laerm;36239;48.132;-1.210;2022-12-07T02:53:01;39.97;35.94;42.76;;
50333;Laerm;36239;48.132;-1.210;2022-12-07T02:55:29;44.55;36.91;78.43;;
50333;Laerm;36239;48.132;-1.210;2022-12-07T03:00:22;39.32;35.36;42.98;;
50333;Laerm;36239;48.132;-1.210;2022-12-07T03:15:43;39.04;35.04;42.65;;
50333;Laerm;36239;48.132;-1.210;2022-12-07T03:18:12;39.20;35.04;62.27;;
50333;Laerm;36239;48.132;-1.210;2022-12-07T03:20:39;39.37;35.66;42.35;;
50333;Laerm;36239;48.132;-1.210;2022-12-07T03:23:07;39.62;35.04;57.00;;
50333;Laerm;36239;48.132;-1.210;2022-12-07T03:25:36;39.54;35.94;43.19;;
50333;Laerm;36239;48.132;-1.210;2022-12-07T03:28:04;41.11;35.66;57.81;;
50333;Laerm;36239;48.132;-1.210;2022-12-07T03:30:49;39.39;35.36;47.74;;
50333;Laerm;36239;48.132;-1.210;2022-12-07T03:33:27;39.13;34.69;43.72;;
50333;Laerm;36239;48.132;-1.210;2022-12-07T03:35:58;39.72;34.31;48.78;;
50333;Laerm;36239;48.132;-1.210;2022-12-07T03:38:34;44.83;35.04;69.29;;
50333;Laerm;36239;48.132;-1.210;2022-12-07T03:41:08;41.83;36.45;64.55;;
50333;Laerm;36239;48.132;-1.210;2022-12-07T03:43:36;41.05;35.94;60.79;;
50333;Laerm;36239;48.132;-1.210;2022-12-07T03:48:41;39.92;36.20;53.95;;
50333;Laerm;36239;48.132;-1.210;2022-12-07T03:52:15;39.36;33.90;50.11;;
50333;Laerm;36239;48.132;-1.210;2022-12-07T03:56:42;40.89;33.90;60.31;;
50333;Laerm;36239;48.132;-1.210;2022-12-07T03:59:09;39.73;35.66;56.51;;
50333;Laerm;36239;48.132;-1.210;2022-12-07T04:01:35;40.70;34.69;67.06;;
50333;Laerm;36239;48.132;-1.210;2022-12-07T04:04:01;39.20;35.36;43.97;;
50333;Laerm;36239;48.132;-1.210;2022-12-07T04:06:30;39.04;35.66;43.34;;
50333;Laerm;36239;48.132;-1.210;2022-12-07T04:08:56;39.04;35.36;43.29;;
50333;Laerm;36239;48.132;-1.210;2022-12-07T04:11:22;39.43;35.36;45.65;;
50333;Laerm;36239;48.132;-1.210;2022-12-07T04:13:48;39.65;36.20;44.69;;
50333;Laerm;36239;48.132;-1.210;2022-12-07T04:16:33;39.69;35.36;54.50;;
50333;Laerm;36239;48.132;-1.210;2022-12-07T04:18:59;42.52;35.36;68.08;;
50333;Laerm;36239;48.132;-1.210;2022-12-07T04:21:25;41.32;35.36;62.12;;
50333;Laerm;36239;48.132;-1.210;2022-12-07T04:23:51;44.47;36.20;70.15;;
50333;Laerm;36239;48.132;-1.210;2022-12-07T04:26:17;42.22;35.66;63.92;;
50333;Laerm;36239;48.132;-1.210;2022-12-07T04:28:43;42.38;36.20;66.43;;
50333;Laerm;36239;48.132;-1.210;2022-12-07T04:31:09;41.03;34.31;61.88;;
50333;Laerm;36239;48.132;-1.210;2022-12-07T04:33:35;45.16;35.36;66.60;;
50333;Laerm;36239;48.132;-1.210;2022-12-07T04:36:01;53.79;35.94;76.54;;
50333;Laerm;36239;48.132;-1.210;2022-12-07T04:38:27;50.32;35.04;78.92;;
50333;Laerm;36239;48.132;-1.210;2022-12-07T04:40:53;39.85;36.20;49.23;;
50333;Laerm;36239;48.132;-1.210;2022-12-07T04:43:19;41.49;35.86;60.62;;
50333;Laerm;36239;48.132;-1.210;2022-12-07T04:45:46;46.75;36.20;64.33;;
50333;Laerm;36239;48.132;-1.210;2022-12-07T04:48:12;47.82;35.04;69.97;;
50333;Laerm;36239;48.132;-1.210;2022-12-07T04:50:39;43.60;35.66;64.46;;
50333;Laerm;36239;48.132;-1.210;2022-12-07T04:53:05;40.51;34.31;60.09;;
50333;Laerm;36239;48.132;-1.210;2022-12-07T04:55:31;41.23;33.90;59.31;;
50333;Laerm;36239;48.132;-1.210;2022-12-07T04:57:57;44.11;34.69;57.27;;
50333;Laerm;36239;48.132;-1.210;2022-12-07T05:00:23;41.80;35.36;61.46;;
50333;Laerm;36239;48.132;-1.210;2022-12-07T05:02:49;39.81;35.36;44.23;;
50333;Laerm;36239;48.132;-1.210;2022-12-07T05:05:15;42.47;35.94;58.19;;
50333;Laerm;36239;48.132;-1.210;2022-12-07T05:07:41;50.87;37.32;75.12;;
50333;Laerm;36239;48.132;-1.210;2022-12-07T05:10:07;44.32;37.12;66.15;;
50333;Laerm;36239;48.132;-1.210;2022-12-07T05:12:33;41.42;36.69;48.99;;
50333;Laerm;36239;48.132;-1.210;2022-12-07T05:14:59;39.96;36.69;49.04;;
50333;Laerm;36239;48.132;-1.210;2022-12-07T05:17:25;40.19;36.45;54.78;;
50333;Laerm;36239;48.132;-1.210;2022-12-07T05:19:51;48.08;36.20;69.26;;
50333;Laerm;36239;48.132;-1.210;2022-12-07T05:22:17;39.58;34.31;42.98;;
50333;Laerm;36239;48.132;-1.210;2022-12-07T05:24:43;44.45;36.20;65.51;;
50333;Laerm;36239;48.132;-1.210;2022-12-07T05:27:09;43.68;35.66;63.40;;
50333;Laerm;36239;48.132;-1.210;2022-12-07T05:29:35;43.02;35.94;63.26;;
50333;Laerm;36239;48.132;-1.210;2022-12-07T05:32:01;39.91;35.36;52.37;;
50333;Laerm;36239;48.132;-1.210;2022-12-07T05:34:27;39.73;35.94;44.90;;
50333;Laerm;36239;48.132;-1.210;2022-12-07T05:36:53;40.82;35.04;63.19;;
50333;Laerm;36239;48.132;-1.210;2022-12-07T05:39:19;39.74;36.20;53.31;;
50333;Laerm;36239;48.132;-1.210;2022-12-07T05:41:45;39.96;35.66;43.77;;
50333;Laerm;36239;48.132;-1.210;2022-12-07T05:44:29;39.92;35.36;46.35;;
50333;Laerm;36239;48.132;-1.210;2022-12-07T05:46:55;40.98;36.69;57.87;;
50333;Laerm;36239;48.132;-1.210;2022-12-07T05:49:21;41.96;35.36;61.57;;
50333;Laerm;36239;48.132;-1.210;2022-12-07T05:51:47;40.56;35.66;49.44;;
50333;Laerm;36239;48.132;-1.210;2022-12-07T05:54:13;40.22;35.94;47.08;;
50333;Laerm;36239;48.132;-1.210;2022-12-07T05:56:39;40.59;37.70;43.24;;
50333;Laerm;36239;48.132;-1.210;2022-12-07T05:59:05;42.41;36.91;62.71;;
50333;Laerm;36239;48.132;-1.210;2022-12-07T06:01:56;41.53;36.45;58.97;;
50333;Laerm;36239;48.132;-1.210;2022-12-07T06:04:23;41.68;36.91;62.12;;
50333;Laerm;36239;48.132;-1.210;2022-12-07T06:06:49;45.45;37.32;68.96;;
50333;Laerm;36239;48.132;-1.210;2022-12-07T06:09:16;40.67;37.52;44.07;;
50333;Laerm;36239;48.132;-1.210;2022-12-07T06:11:42;43.69;36.91;76.90;;
50333;Laerm;36239;48.132;-1.210;2022-12-07T06:14:26;41.22;36.20;55.19;;
50333;Laerm;36239;48.132;-1.210;2022-12-07T06:16:52;43.19;36.69;63.80;;
50333;Laerm;36239;48.132;-1.210;2022-12-07T06:19:18;41.67;38.21;60.53;;
50333;Laerm;36239;48.132;-1.210;2022-12-07T06:21:44;46.86;36.56;71.51;;
50333;Laerm;36239;48.132;-1.210;2022-12-07T06:24:11;50.48;37.32;76.63;;
50333;Laerm;36239;48.132;-1.210;2022-12-07T06:26:38;44.87;37.70;67.76;;
50333;Laerm;36239;48.132;-1.210;2022-12-07T06:29:05;46.10;39.92;73.48;;
50333;Laerm;36239;48.132;-1.210;2022-12-07T06:31:31;48.58;40.13;77.98;;
50333;Laerm;36239;48.132;-1.210;2022-12-07T06:34:01;42.04;39.08;51.30;;
50333;Laerm;36239;48.132;-1.210;2022-12-07T06:36:27;43.02;39.58;62.29;;
50333;Laerm;36239;48.132;-1.210;2022-12-07T06:38:53;42.28;38.05;57.22;;
50333;Laerm;36239;48.132;-1.210;2022-12-07T06:41:19;46.27;38.05;69.78;;
50333;Laerm;36239;48.132;-1.210;2022-12-07T06:43:45;45.32;37.88;71.42;;
50333;Laerm;36239;48.132;-1.210;2022-12-07T06:46:12;46.28;38.67;68.95;;
50333;Laerm;36239;48.132;-1.210;2022-12-07T06:48:38;44.28;38.52;62.91;;
50333;Laerm;36239;48.132;-1.210;2022-12-07T06:51:04;50.81;43.77;69.49;;
50333;Laerm;36239;48.132;-1.210;2022-12-07T06:53:30;49.14;41.06;67.01;;
50333;Laerm;36239;48.132;-1.210;2022-12-07T06:55:56;42.69;39.46;56.92;;
50333;Laerm;36239;48.132;-1.210;2022-12-07T06:58:22;45.52;38.95;68.56;;
50333;Laerm;36239;48.132;-1.210;2022-12-07T07:00:49;48.22;39.46;67.32;;
50333;Laerm;36239;48.132;-1.210;2022-12-07T07:03:17;43.66;37.88;59.00;;
50333;Laerm;36239;48.132;-1.210;2022-12-07T07:05:44;42.95;39.21;60.38;;
50333;Laerm;36239;48.132;-1.210;2022-12-07T07:08:10;43.24;39.81;52.56;;
50333;Laerm;36239;48.132;-1.210;2022-12-07T07:10:39;42.77;40.03;50.69;;
50333;Laerm;36239;48.132;-1.210;2022-12-07T07:13:05;44.13;40.03;59.43;;
50333;Laerm;36239;48.132;-1.210;2022-12-07T07:15:31;51.39;39.34;67.15;;
50333;Laerm;36239;48.132;-1.210;2022-12-07T07:17:58;51.68;39.21;71.62;;
50333;Laerm;36239;48.132;-1.210;2022-12-07T07:20:24;42.88;39.34;51.91;;
50333;Laerm;36239;48.132;-1.210;2022-12-07T07:22:50;42.51;39.08;48.90;;
50333;Laerm;36239;48.132;-1.210;2022-12-07T07:25:16;43.00;38.37;55.96;;
50333;Laerm;36239;48.132;-1.210;2022-12-07T07:27:42;53.44;39.08;81.89;;
50333;Laerm;36239;48.132;-1.210;2022-12-07T07:30:11;56.50;48.20;67.08;;
50333;Laerm;36239;48.132;-1.210;2022-12-07T07:32:37;56.77;48.60;73.46;;
50333;Laerm;36239;48.132;-1.210;2022-12-07T07:35:03;55.43;38.52;80.59;;
50333;Laerm;36239;48.132;-1.210;2022-12-07T07:37:29;41.75;38.95;48.20;;
50333;Laerm;36239;48.132;-1.210;2022-12-07T07:39:55;42.71;39.34;48.49;;
50333;Laerm;36239;48.132;-1.210;2022-12-07T07:42:21;43.30;41.38;49.70;;
50333;Laerm;36239;48.132;-1.210;2022-12-07T07:44:47;43.10;40.71;52.98;;
50333;Laerm;36239;48.132;-1.210;2022-12-07T07:47:13;43.21;39.81;45.77;;
50333;Laerm;36239;48.132;-1.210;2022-12-07T07:49:42;43.80;41.38;54.59;;
50333;Laerm;36239;48.132;-1.210;2022-12-07T07:52:08;43.78;41.53;53.50;;
50333;Laerm;36239;48.132;-1.210;2022-12-07T07:54:34;43.72;39.70;49.47;;
50333;Laerm;36239;48.132;-1.210;2022-12-07T07:57:00;50.56;41.61;75.73;;
50333;Laerm;36239;48.132;-1.210;2022-12-07T07:59:26;43.93;39.92;57.62;;
50333;Laerm;36239;48.132;-1.210;2022-12-07T08:01:52;43.10;39.81;56.20;;
50333;Laerm;36239;48.132;-1.210;2022-12-07T08:04:18;42.86;38.05;56.20;;
50333;Laerm;36239;48.132;-1.210;2022-12-07T08:06:44;43.95;39.81;52.00;;
50333;Laerm;36239;48.132;-1.210;2022-12-07T08:09:13;43.68;39.92;48.69;;
50333;Laerm;36239;48.132;-1.210;2022-12-07T08:11:39;43.75;40.71;53.14;;
50333;Laerm;36239;48.132;-1.210;2022-12-07T08:14:05;43.60;39.08;57.16;;
50333;Laerm;36239;48.132;-1.210;2022-12-07T08:16:31;43.11;38.21;61.17;;
50333;Laerm;36239;48.132;-1.210;2022-12-07T08:18:57;45.20;38.21;78.16;;
50333;Laerm;36239;48.132;-1.210;2022-12-07T08:21:24;42.92;38.81;52.61;;
50333;Laerm;36239;48.132;-1.210;2022-12-07T08:23:50;42.05;39.21;60.97;;
50333;Laerm;36239;48.132;-1.210;2022-12-07T08:26:16;42.09;39.08;51.84;;
50333;Laerm;36239;48.132;-1.210;2022-12-07T08:28:42;41.87;38.81;50.31;;
50333;Laerm;36239;48.132;-1.210;2022-12-07T08:31:10;41.43;38.52;47.95;;
50333;Laerm;36239;48.132;-1.210;2022-12-07T08:33:37;42.41;38.81;50.68;;
50333;Laerm;36239;48.132;-1.210;2022-12-07T08:36:04;50.78;38.21;80.51;;
50333;Laerm;36239;48.132;-1.210;2022-12-07T08:38:30;43.62;38.81;67.59;;
50333;Laerm;36239;48.132;-1.210;2022-12-07T08:40:57;42.76;38.81;59.82;;
50333;Laerm;36239;48.132;-1.210;2022-12-07T08:43:24;42.12;38.95;60.21;;
50333;Laerm;36239;48.132;-1.210;2022-12-07T08:45:53;41.44;36.45;56.68;;
50333;Laerm;36239;48.132;-1.210;2022-12-07T08:48:21;42.62;38.52;49.83;;
50333;Laerm;36239;48.132;-1.210;2022-12-07T08:50:50;47.41;39.34;65.51;;
50333;Laerm;36239;48.132;-1.210;2022-12-07T08:53:16;43.30;39.08;51.64;;
50333;Laerm;36239;48.132;-1.210;2022-12-07T08:55:45;43.80;39.34;57.37;;
50333;Laerm;36239;48.132;-1.210;2022-12-07T08:58:12;43.09;38.81;50.58;;
50333;Laerm;36239;48.132;-1.210;2022-12-07T09:00:38;42.17;38.37;59.39;;
50333;Laerm;36239;48.132;-1.210;2022-12-07T09:03:04;41.68;38.81;52.80;;
50333;Laerm;36239;48.132;-1.210;2022-12-07T09:05:30;42.18;38.52;47.67;;
50333;Laerm;36239;48.132;-1.210;2022-12-07T09:07:58;41.91;38.81;51.07;;
50333;Laerm;36239;48.132;-1.210;2022-12-07T09:10:25;42.43;38.67;56.59;;
50333;Laerm;36239;48.132;-1.210;2022-12-07T09:12:51;42.13;39.46;51.90;;
50333;Laerm;36239;48.132;-1.210;2022-12-07T09:15:17;42.34;38.81;48.42;;
50333;Laerm;36239;48.132;-1.210;2022-12-07T09:17:44;42.38;38.21;47.34;;
50333;Laerm;36239;48.132;-1.210;2022-12-07T09:20:10;41.76;38.37;47.24;;
50333;Laerm;36239;48.132;-1.210;2022-12-07T09:22:36;42.22;38.81;48.94;;
50333;Laerm;36239;48.132;-1.210;2022-12-07T09:25:03;41.79;38.52;50.98;;
50333;Laerm;36239;48.132;-1.210;2022-12-07T09:27:29;41.62;38.37;44.90;;
50333;Laerm;36239;48.132;-1.210;2022-12-07T09:29:55;41.98;38.52;50.39;;
50333;Laerm;36239;48.132;-1.210;2022-12-07T09:32:21;42.31;38.95;54.42;;
50333;Laerm;36239;48.132;-1.210;2022-12-07T09:34:47;42.29;38.21;61.43;;
50333;Laerm;36239;48.132;-1.210;2022-12-07T09:37:13;42.68;38.52;59.56;;
50333;Laerm;36239;48.132;-1.210;2022-12-07T09:39:40;41.80;37.88;49.24;;
50333;Laerm;36239;48.132;-1.210;2022-12-07T09:42:06;41.57;38.52;56.05;;
50333;Laerm;36239;48.132;-1.210;2022-12-07T09:44:33;42.36;39.21;46.95;;
50333;Laerm;36239;48.132;-1.210;2022-12-07T09:47:00;42.06;38.81;47.24;;
50333;Laerm;36239;48.132;-1.210;2022-12-07T09:49:30;42.40;38.81;63.51;;
50333;Laerm;36239;48.132;-1.210;2022-12-07T09:54:43;42.60;38.95;60.01;;
50333;Laerm;36239;48.132;-1.210;2022-12-07T09:57:11;42.05;38.67;47.74;;
50333;Laerm;36239;48.132;-1.210;2022-12-07T09:59:38;43.18;39.58;53.37;;
50333;Laerm;36239;48.132;-1.210;2022-12-07T10:02:19;42.26;38.99;59.40;;
50333;Laerm;36239;48.132;-1.210;2022-12-07T10:04:47;41.73;38.05;50.54;;
50333;Laerm;36239;48.132;-1.210;2022-12-07T10:07:13;41.57;38.37;45.91;;
50333;Laerm;36239;48.132;-1.210;2022-12-07T10:09:39;48.71;37.52;68.25;;
50333;Laerm;36239;48.132;-1.210;2022-12-07T10:14:32;41.60;38.21;59.29;;
50333;Laerm;36239;48.132;-1.210;2022-12-07T10:16:59;41.40;37.88;53.40;;
50333;Laerm;36239;48.132;-1.210;2022-12-07T10:19:29;42.12;39.08;60.43;;
50333;Laerm;36239;48.132;-1.210;2022-12-07T10:22:00;42.33;38.21;60.93;;
50333;Laerm;36239;48.132;-1.210;2022-12-07T10:24:26;41.35;37.88;60.83;;
50333;Laerm;36239;48.132;-1.210;2022-12-07T10:26:52;41.22;36.69;51.94;;
50333;Laerm;36239;48.132;-1.210;2022-12-07T10:29:20;41.18;37.17;64.79;;
50333;Laerm;36239;48.132;-1.210;2022-12-07T10:31:51;42.31;38.37;55.78;;
50333;Laerm;36239;48.132;-1.210;2022-12-07T10:34:26;41.36;37.70;50.38;;
50333;Laerm;36239;48.132;-1.210;2022-12-07T10:36:53;41.44;37.70;54.40;;
50333;Laerm;36239;48.132;-1.210;2022-12-07T10:39:20;41.32;38.21;54.33;;
50333;Laerm;36239;48.132;-1.210;2022-12-07T10:44:23;41.71;37.70;65.98;;
50333;Laerm;36239;48.132;-1.210;2022-12-07T10:52:30;40.75;37.88;47.67;;
50333;Laerm;36239;48.132;-1.210;2022-12-07T11:00:09;41.40;35.94;53.74;;
50333;Laerm;36239;48.132;-1.210;2022-12-07T11:10:13;43.18;39.21;52.02;;
50333;Laerm;36239;48.132;-1.210;2022-12-07T11:15:35;43.51;39.08;61.95;;
50333;Laerm;36239;48.132;-1.210;2022-12-07T11:20:53;42.21;38.67;56.72;;
50333;Laerm;36239;48.132;-1.210;2022-12-07T11:26:13;42.20;38.05;51.33;;
50333;Laerm;36239;48.132;-1.210;2022-12-07T11:28:58;42.00;37.88;56.14;;
50333;Laerm;36239;48.132;-1.210;2022-12-07T11:33:59;47.61;37.32;74.25;;
50333;Laerm;36239;48.132;-1.210;2022-12-07T11:36:43;43.61;36.45;55.34;;
50333;Laerm;36239;48.132;-1.210;2022-12-07T11:41:45;42.59;36.69;62.75;;
50333;Laerm;36239;48.132;-1.210;2022-12-07T11:49:17;47.42;36.45;64.23;;
50333;Laerm;36239;48.132;-1.210;2022-12-07T11:51:44;45.47;35.04;63.28;;
50333;Laerm;36239;48.132;-1.210;2022-12-07T11:54:16;45.38;35.66;71.84;;
50333;Laerm;36239;48.132;-1.210;2022-12-07T11:56:44;43.12;34.69;63.74;;
50333;Laerm;36239;48.132;-1.210;2022-12-07T11:59:19;45.54;34.69;67.93;;
50333;Laerm;36239;48.132;-1.210;2022-12-07T12:01:58;40.11;33.90;56.34;;
50333;Laerm;36239;48.132;-1.210;2022-12-07T12:04:33;47.24;36.20;78.03;;
50333;Laerm;36239;48.132;-1.210;2022-12-07T12:07:01;41.20;35.94;60.28;;
50333;Laerm;36239;48.132;-1.210;2022-12-07T12:09:35;40.18;35.66;48.52;;
50333;Laerm;36239;48.132;-1.210;2022-12-07T12:22:49;45.53;37.70;65.57;;
50333;Laerm;36239;48.132;-1.210;2022-12-07T12:27:52;41.14;36.91;50.26;;
50333;Laerm;36239;48.132;-1.210;2022-12-07T12:30:52;40.92;36.45;50.03;;
50333;Laerm;36239;48.132;-1.210;2022-12-07T12:33:17;40.55;36.20;47.54;;
50333;Laerm;36239;48.132;-1.210;2022-12-07T12:35:45;41.06;36.45;56.68;;
50333;Laerm;36239;48.132;-1.210;2022-12-07T12:38:33;41.14;37.52;50.74;;
50333;Laerm;36239;48.132;-1.210;2022-12-07T12:40:59;40.96;37.70;44.79;;
50333;Laerm;36239;48.132;-1.210;2022-12-07T12:50:18;41.02;37.12;55.16;;
50333;Laerm;36239;48.132;-1.210;2022-12-07T12:51:58;40.85;36.69;46.40;;
50333;Laerm;36239;48.132;-1.210;2022-12-07T12:54:29;41.68;37.12;52.91;;
50333;Laerm;36239;48.132;-1.210;2022-12-07T12:57:03;40.91;37.52;50.33;;
50333;Laerm;36239;48.132;-1.210;2022-12-07T12:59:35;44.15;37.32;58.31;;
50333;Laerm;36239;48.132;-1.210;2022-12-07T13:10:03;40.21;36.91;45.45;;
50333;Laerm;36239;48.132;-1.210;2022-12-07T13:12:29;40.86;36.34;46.93;;
50333;Laerm;36239;48.132;-1.210;2022-12-07T13:14:57;42.75;40.23;49.33;;
50333;Laerm;36239;48.132;-1.210;2022-12-07T13:19:58;44.79;39.46;53.40;;
50333;Laerm;36239;48.132;-1.210;2022-12-07T13:24:57;45.22;42.93;62.44;;
50333;Laerm;36239;48.132;-1.210;2022-12-07T13:27:25;48.84;43.72;64.33;;
50333;Laerm;36239;48.132;-1.210;2022-12-07T13:29:52;45.70;43.14;51.91;;
50333;Laerm;36239;48.132;-1.210;2022-12-07T13:32:25;45.86;43.54;50.49;;
50333;Laerm;36239;48.132;-1.210;2022-12-07T13:34:51;45.72;43.68;52.20;;
50333;Laerm;36239;48.132;-1.210;2022-12-07T13:37:23;45.76;43.77;51.72;;
50333;Laerm;36239;48.132;-1.210;2022-12-07T13:39:51;45.74;41.30;55.85;;
50333;Laerm;36239;48.132;-1.210;2022-12-07T13:42:28;47.33;41.22;52.36;;
50333;Laerm;36239;48.132;-1.210;2022-12-07T13:44:55;43.40;39.21;49.51;;
50333;Laerm;36239;48.132;-1.210;2022-12-07T13:49:57;42.88;39.92;50.57;;
50333;Laerm;36239;48.132;-1.210;2022-12-07T13:52:24;42.52;39.58;54.50;;
50333;Laerm;36239;48.132;-1.210;2022-12-07T13:55:14;42.12;39.70;56.00;;
50333;Laerm;36239;48.132;-1.210;2022-12-07T13:57:37;42.27;39.46;52.90;;
50333;Laerm;36239;48.132;-1.210;2022-12-07T14:00:04;42.73;39.70;59.71;;
50333;Laerm;36239;48.132;-1.210;2022-12-07T14:02:32;58.61;39.08;78.32;;
50333;Laerm;36239;48.132;-1.210;2022-12-07T14:07:33;42.63;39.08;63.26;;
50333;Laerm;36239;48.132;-1.210;2022-12-07T14:10:00;47.58;38.67;65.39;;
50333;Laerm;36239;48.132;-1.210;2022-12-07T14:12:28;41.21;37.70;51.62;;
50333;Laerm;36239;48.132;-1.210;2022-12-07T14:14:55;41.27;36.20;55.58;;
50333;Laerm;36239;48.132;-1.210;2022-12-07T14:17:22;40.05;36.69;43.99;;
50333;Laerm;36239;48.132;-1.210;2022-12-07T14:19:58;42.97;37.12;65.78;;
50333;Laerm;36239;48.132;-1.210;2022-12-07T14:22:29;43.19;37.52;50.09;;
50333;Laerm;36239;48.132;-1.210;2022-12-07T14:25:16;50.91;38.21;69.55;;
50333;Laerm;36239;48.132;-1.210;2022-12-07T14:27:58;48.93;36.69;63.35;;
50333;Laerm;36239;48.132;-1.210;2022-12-07T14:30:32;64.96;35.66;78.27;;
50333;Laerm;36239;48.132;-1.210;2022-12-07T14:33:02;64.34;40.23;76.36;;
50333;Laerm;36239;48.132;-1.210;2022-12-07T14:35:29;42.28;39.08;55.26;;
50333;Laerm;36239;48.132;-1.210;2022-12-07T14:37:55;44.95;39.92;64.77;;
50333;Laerm;36239;48.132;-1.210;2022-12-07T14:40:25;43.55;39.81;61.47;;
50333;Laerm;36239;48.132;-1.210;2022-12-07T14:42:57;48.39;40.33;56.05;;
50333;Laerm;36239;48.132;-1.210;2022-12-07T14:45:25;49.80;40.03;65.44;;
50333;Laerm;36239;48.132;-1.210;2022-12-07T14:47:51;52.58;41.75;77.17;;
50333;Laerm;36239;48.132;-1.210;2022-12-07T14:50:18;56.85;41.06;79.39;;
50333;Laerm;36239;48.132;-1.210;2022-12-07T14:52:46;42.35;39.70;48.42;;
50333;Laerm;36239;48.132;-1.210;2022-12-07T14:55:14;42.22;39.70;46.27;;
50333;Laerm;36239;48.132;-1.210;2022-12-07T14:57:42;51.14;40.03;67.38;;
50333;Laerm;36239;48.132;-1.210;2022-12-07T15:00:09;50.19;39.34;56.68;;
50333;Laerm;36239;48.132;-1.210;2022-12-07T15:02:38;50.88;40.71;56.17;;
50333;Laerm;36239;48.132;-1.210;2022-12-07T15:05:04;42.90;39.21;57.65;;
50333;Laerm;36239;48.132;-1.210;2022-12-07T15:07:30;48.41;39.34;58.65;;
50333;Laerm;36239;48.132;-1.210;2022-12-07T15:09:56;51.51;41.89;57.66;;
50333;Laerm;36239;48.132;-1.210;2022-12-07T15:12:22;43.98;41.82;50.68;;
50333;Laerm;36239;48.132;-1.210;2022-12-07T15:14:50;43.80;39.81;52.76;;
50333;Laerm;36239;48.132;-1.210;2022-12-07T15:17:16;44.84;40.23;56.27;;
50333;Laerm;36239;48.132;-1.210;2022-12-07T15:19:42;50.18;45.01;55.85;;
50333;Laerm;36239;48.132;-1.210;2022-12-07T15:22:08;49.25;42.41;53.52;;
50333;Laerm;36239;48.132;-1.210;2022-12-07T15:24:36;58.14;41.75;80.35;;
50333;Laerm;36239;48.132;-1.210;2022-12-07T15:27:03;55.37;43.09;86.75;;
50333;Laerm;36239;48.132;-1.210;2022-12-07T15:29:29;44.64;40.13;56.94;;
50333;Laerm;36239;48.132;-1.210;2022-12-07T15:31:55;51.62;38.37;68.37;;
50333;Laerm;36239;48.132;-1.210;2022-12-07T15:34:21;47.67;36.10;78.56;;
50333;Laerm;36239;48.132;-1.210;2022-12-07T15:36:48;45.61;37.32;70.79;;
50333;Laerm;36239;48.132;-1.210;2022-12-07T15:39:14;48.37;37.70;72.49;;